Denver, CO (80236)

6:44 AM MDT on July 29, 2017 (GMT -0600)
Loretto Heights | | Change Station

Elev 5476 ft 39.66 °N, 105.03 °W | Updated 20 seconds ago

Mostly Cloudy
Mostly Cloudy
63.0 °F
Feels Like 63.0 °F
N
0.0
Wind Variable Wind from WNW
Gusts 0.0 mph

Today
High -- | Low -- °F
--% Chance of Precip.
Yesterday
High -- | Low -- °F
Precip. -- in
Pressure 30.02 in
Visibility 10.0 miles
Clouds Few 7000 ft
Mostly Cloudy 10000 ft
Mostly Cloudy 13000 ft
Dew Point 61 °F
Humidity 93%
Rainfall 0.02 in
Snow Depth Not available.
5:56 AM 8:15 PM
Waxing Crescent, 39% visible
METAR KAPA 291153Z 22007KT 10SM FEW070 BKN100 BKN130 19/14 A3021 RMK AO2 SLP164 SHRA DSNT W-NW 60000 T01890139 10194 20178 55001
Pressure 30.02 in
Visibility 10.0 miles
Clouds Few 7000 ft
Mostly Cloudy 10000 ft
Mostly Cloudy 13000 ft
Dew Point 61 °F
Humidity 93%
Rainfall 0.02 in
Snow Depth Not available.
5:56 AM 8:15 PM
Waxing Crescent, 39% visible
METAR KAPA 291153Z 22007KT 10SM FEW070 BKN100 BKN130 19/14 A3021 RMK AO2 SLP164 SHRA DSNT W-NW 60000 T01890139 10194 20178 55001

Get Severe Weather Alerts

Thanks for signing up!

Be on the lookout for a verification email in your inbox.

You'll start receiving the daily forecast at 6 AM.

×

10-Day Weather Forecast

Almanac

Astronomy

Jul. 29, 2017 Rise Set
Actual Time
Civil Twilight
Nautical Twilight
Astronomical Twilight
Moon
Length of Visible Light
Length of Day
Tomorrow will be .
, % of the Moon is Illuminated

Today's Extremes

State Highs State Lows

Community

WunderPhotos

Category 6

Welcome to Category 6. This is the collective home for Weather Underground's featured writeups by Dr. Jeff Masters (right), Bob Henson (left), Chris Burt, and other regular contributors.

Nearby

Air Quality

  Air Quality AQ Index Pollutant
Not available.

Snow Depth

Station Depth Elevation

Earthquake Activity

City Distance Mag. Time & Date
Minimum magnitude displayed is 2.5.

Coastal Water Temperatures

Place Temperature

Stations

Nearby Weather Stations

Station Location Temp. Windchill Dew Point Humidity Wind Precip. Elev Updated Type
                   

Watches & Warnings

There are currently no watches in effect.